sensor_id;sensor_type;location;lat;lon;timestamp;pressure;altitude;pressure_sealevel;temperature;humidity
37200;BME280;23096;50.892;16.746;2022-08-19T00:00:41;98577.70;;;24.96;53.69
37200;BME280;23096;50.892;16.746;2022-08-19T00:03:08;98576.37;;;24.92;53.72
37200;BME280;23096;50.892;16.746;2022-08-19T00:05:35;98564.01;;;24.88;53.90
37200;BME280;23096;50.892;16.746;2022-08-19T00:08:01;98563.51;;;24.89;53.98
37200;BME280;23096;50.892;16.746;2022-08-19T00:10:28;98564.36;;;24.90;54.03
37200;BME280;23096;50.892;16.746;2022-08-19T00:12:54;98563.84;;;24.86;54.10
37200;BME280;23096;50.892;16.746;2022-08-19T00:15:22;98574.70;;;24.87;54.17
37200;BME280;23096;50.892;16.746;2022-08-19T00:17:48;98576.66;;;24.85;54.25
37200;BME280;23096;50.892;16.746;2022-08-19T00:20:18;98553.77;;;24.81;54.29
37200;BME280;23096;50.892;16.746;2022-08-19T00:22:46;98566.42;;;24.78;54.36
37200;BME280;23096;50.892;16.746;2022-08-19T00:25:13;98565.60;;;24.77;54.47
37200;BME280;23096;50.892;16.746;2022-08-19T00:27:40;98566.10;;;24.77;54.53
37200;BME280;23096;50.892;16.746;2022-08-19T00:30:07;98558.16;;;24.73;54.65
37200;BME280;23096;50.892;16.746;2022-08-19T00:32:35;98552.06;;;24.72;54.76
37200;BME280;23096;50.892;16.746;2022-08-19T00:35:02;98546.95;;;24.71;54.84
37200;BME280;23096;50.892;16.746;2022-08-19T00:37:29;98544.00;;;24.70;54.96
37200;BME280;23096;50.892;16.746;2022-08-19T00:39:55;98532.45;;;24.66;54.91
37200;BME280;23096;50.892;16.746;2022-08-19T00:42:22;98534.31;;;24.52;55.14
37200;BME280;23096;50.892;16.746;2022-08-19T00:44:49;98534.80;;;24.47;55.34
37200;BME280;23096;50.892;16.746;2022-08-19T00:47:16;98538.17;;;24.40;55.48
37200;BME280;23096;50.892;16.746;2022-08-19T00:49:48;98535.52;;;24.36;55.71
37200;BME280;23096;50.892;16.746;2022-08-19T00:52:23;98537.94;;;24.29;55.87
37200;BME280;23096;50.892;16.746;2022-08-19T00:54:50;98534.61;;;24.23;56.06
37200;BME280;23096;50.892;16.746;2022-08-19T00:57:18;98531.75;;;24.16;56.21
37200;BME280;23096;50.892;16.746;2022-08-19T00:59:51;98529.40;;;24.09;56.40
37200;BME280;23096;50.892;16.746;2022-08-19T01:02:18;98525.26;;;24.02;56.54
37200;BME280;23096;50.892;16.746;2022-08-19T01:04:45;98526.72;;;24.01;56.79
37200;BME280;23096;50.892;16.746;2022-08-19T01:07:11;98521.92;;;24.00;56.88
37200;BME280;23096;50.892;16.746;2022-08-19T01:09:38;98525.05;;;24.00;57.01
37200;BME280;23096;50.892;16.746;2022-08-19T01:12:05;98520.27;;;23.95;57.13
37200;BME280;23096;50.892;16.746;2022-08-19T01:14:31;98515.45;;;23.90;57.20
37200;BME280;23096;50.892;16.746;2022-08-19T01:16:58;98514.77;;;23.88;57.36
37200;BME280;23096;50.892;16.746;2022-08-19T01:19:32;98507.03;;;23.87;57.45
37200;BME280;23096;50.892;16.746;2022-08-19T01:24:40;98505.28;;;23.78;57.59
37200;BME280;23096;50.892;16.746;2022-08-19T01:27:07;98501.63;;;23.74;57.72
37200;BME280;23096;50.892;16.746;2022-08-19T01:29:39;98501.95;;;23.71;57.80
37200;BME280;23096;50.892;16.746;2022-08-19T01:32:07;98497.30;;;23.69;57.97
37200;BME280;23096;50.892;16.746;2022-08-19T01:34:35;98493.36;;;23.69;58.07
37200;BME280;23096;50.892;16.746;2022-08-19T01:37:10;98497.48;;;23.68;58.08
37200;BME280;23096;50.892;16.746;2022-08-19T01:39:38;98492.66;;;23.63;58.19
37200;BME280;23096;50.892;16.746;2022-08-19T01:42:07;98488.69;;;23.59;58.30
37200;BME280;23096;50.892;16.746;2022-08-19T01:44:35;98497.68;;;23.57;58.38
37200;BME280;23096;50.892;16.746;2022-08-19T01:47:03;98497.01;;;23.54;58.44
37200;BME280;23096;50.892;16.746;2022-08-19T01:49:30;98497.65;;;23.52;58.59
37200;BME280;23096;50.892;16.746;2022-08-19T01:51:59;98495.02;;;23.52;58.63
37200;BME280;23096;50.892;16.746;2022-08-19T01:54:26;98491.05;;;23.48;58.70
37200;BME280;23096;50.892;16.746;2022-08-19T01:56:59;98484.77;;;23.45;58.73
37200;BME280;23096;50.892;16.746;2022-08-19T01:59:27;98485.05;;;23.42;58.81
37200;BME280;23096;50.892;16.746;2022-08-19T02:01:54;98479.47;;;23.41;58.99
37200;BME280;23096;50.892;16.746;2022-08-19T02:04:20;98480.97;;;23.44;59.05
37200;BME280;23096;50.892;16.746;2022-08-19T02:06:47;98472.38;;;23.38;58.98
37200;BME280;23096;50.892;16.746;2022-08-19T02:09:13;98474.97;;;23.33;59.11
37200;BME280;23096;50.892;16.746;2022-08-19T02:11:41;98478.17;;;23.27;59.15
37200;BME280;23096;50.892;16.746;2022-08-19T02:14:07;98480.59;;;23.21;59.29
37200;BME280;23096;50.892;16.746;2022-08-19T02:16:35;98475.63;;;23.18;59.41
37200;BME280;23096;50.892;16.746;2022-08-19T02:19:02;98469.55;;;23.17;59.57
37200;BME280;23096;50.892;16.746;2022-08-19T02:21:29;98459.22;;;23.20;59.66
37200;BME280;23096;50.892;16.746;2022-08-19T02:23:57;98468.94;;;23.23;59.76
37200;BME280;23096;50.892;16.746;2022-08-19T02:26:24;98465.64;;;23.21;59.71
37200;BME280;23096;50.892;16.746;2022-08-19T02:28:53;98466.08;;;23.16;59.77
37200;BME280;23096;50.892;16.746;2022-08-19T02:31:22;98464.23;;;23.13;59.83
37200;BME280;23096;50.892;16.746;2022-08-19T02:33:49;98460.39;;;23.07;59.87
37200;BME280;23096;50.892;16.746;2022-08-19T02:36:18;98460.33;;;23.03;59.96
37200;BME280;23096;50.892;16.746;2022-08-19T02:38:45;98451.73;;;22.97;60.07
37200;BME280;23096;50.892;16.746;2022-08-19T02:41:14;98453.33;;;22.94;60.13
37200;BME280;23096;50.892;16.746;2022-08-19T02:43:42;98457.55;;;22.91;60.26
37200;BME280;23096;50.892;16.746;2022-08-19T02:46:20;98454.89;;;22.87;60.35
37200;BME280;23096;50.892;16.746;2022-08-19T02:48:54;98459.15;;;22.88;60.55
37200;BME280;23096;50.892;16.746;2022-08-19T02:51:24;98465.92;;;22.90;60.63
37200;BME280;23096;50.892;16.746;2022-08-19T02:53:53;98469.05;;;22.90;60.71
37200;BME280;23096;50.892;16.746;2022-08-19T02:56:20;98467.73;;;22.90;60.77
37200;BME280;23096;50.892;16.746;2022-08-19T02:58:47;98474.13;;;22.91;61.00
37200;BME280;23096;50.892;16.746;2022-08-19T03:01:23;98475.02;;;22.96;61.02
37200;BME280;23096;50.892;16.746;2022-08-19T03:03:52;98486.20;;;22.98;61.09
37200;BME280;23096;50.892;16.746;2022-08-19T03:06:19;98484.92;;;23.02;61.18
37200;BME280;23096;50.892;16.746;2022-08-19T03:08:47;98485.17;;;23.05;61.22
37200;BME280;23096;50.892;16.746;2022-08-19T03:11:20;98477.82;;;23.08;61.26
37200;BME280;23096;50.892;16.746;2022-08-19T03:13:49;98476.02;;;23.09;61.24
37200;BME280;23096;50.892;16.746;2022-08-19T03:16:17;98473.73;;;23.10;61.26
37200;BME280;23096;50.892;16.746;2022-08-19T03:18:44;98474.20;;;23.09;61.24
37200;BME280;23096;50.892;16.746;2022-08-19T03:21:17;98474.02;;;23.07;61.26
37200;BME280;23096;50.892;16.746;2022-08-19T03:23:45;98479.28;;;23.07;61.27
37200;BME280;23096;50.892;16.746;2022-08-19T03:26:12;98479.77;;;23.06;61.35
37200;BME280;23096;50.892;16.746;2022-08-19T03:28:41;98476.58;;;23.03;61.29
37200;BME280;23096;50.892;16.746;2022-08-19T03:31:11;98476.23;;;23.02;61.42
37200;BME280;23096;50.892;16.746;2022-08-19T03:33:39;98481.30;;;22.99;61.40
37200;BME280;23096;50.892;16.746;2022-08-19T03:36:15;98485.56;;;23.00;61.46
37200;BME280;23096;50.892;16.746;2022-08-19T03:38:43;98476.37;;;23.00;61.55
37200;BME280;23096;50.892;16.746;2022-08-19T03:41:13;98482.47;;;23.01;61.57
37200;BME280;23096;50.892;16.746;2022-08-19T03:43:43;98488.01;;;22.97;61.46
37200;BME280;23096;50.892;16.746;2022-08-19T03:46:15;98493.22;;;22.93;61.60
37200;BME280;23096;50.892;16.746;2022-08-19T03:48:44;98493.83;;;22.91;61.63
37200;BME280;23096;50.892;16.746;2022-08-19T03:51:20;98486.44;;;22.91;61.67
37200;BME280;23096;50.892;16.746;2022-08-19T03:53:48;98491.70;;;22.91;61.77
37200;BME280;23096;50.892;16.746;2022-08-19T03:56:15;98488.11;;;22.92;61.80
37200;BME280;23096;50.892;16.746;2022-08-19T03:58:43;98496.31;;;22.93;61.81
37200;BME280;23096;50.892;16.746;2022-08-19T04:01:13;98500.92;;;22.95;61.91
37200;BME280;23096;50.892;16.746;2022-08-19T04:03:41;98492.48;;;23.01;61.93
37200;BME280;23096;50.892;16.746;2022-08-19T04:06:16;98496.42;;;23.01;61.85
37200;BME280;23096;50.892;16.746;2022-08-19T04:08:48;98499.19;;;23.00;61.89
37200;BME280;23096;50.892;16.746;2022-08-19T04:11:19;98499.19;;;23.00;61.90
37200;BME280;23096;50.892;16.746;2022-08-19T04:13:48;98500.69;;;23.02;61.94
37200;BME280;23096;50.892;16.746;2022-08-19T04:16:24;98498.52;;;22.97;61.82
37200;BME280;23096;50.892;16.746;2022-08-19T04:18:46;98489.81;;;22.97;61.93
37200;BME280;23096;50.892;16.746;2022-08-19T04:21:22;98493.13;;;22.99;62.02
37200;BME280;23096;50.892;16.746;2022-08-19T04:23:50;98493.16;;;23.03;62.00
37200;BME280;23096;50.892;16.746;2022-08-19T04:26:20;98492.34;;;23.03;62.11
37200;BME280;23096;50.892;16.746;2022-08-19T04:28:48;98492.55;;;23.05;62.06
37200;BME280;23096;50.892;16.746;2022-08-19T04:31:20;98495.07;;;22.97;61.93
37200;BME280;23096;50.892;16.746;2022-08-19T04:33:47;98493.83;;;22.91;62.07
37200;BME280;23096;50.892;16.746;2022-08-19T04:36:19;98501.09;;;22.93;62.19
37200;BME280;23096;50.892;16.746;2022-08-19T04:38:56;98498.47;;;22.93;62.20
37200;BME280;23096;50.892;16.746;2022-08-19T04:41:24;98495.14;;;22.91;62.21
37200;BME280;23096;50.892;16.746;2022-08-19T04:44:10;98492.83;;;22.88;62.25
37200;BME280;23096;50.892;16.746;2022-08-19T04:46:37;98502.30;;;22.85;62.36
37200;BME280;23096;50.892;16.746;2022-08-19T04:49:05;98501.66;;;22.87;62.46
37200;BME280;23096;50.892;16.746;2022-08-19T04:51:33;98503.26;;;22.84;62.43
37200;BME280;23096;50.892;16.746;2022-08-19T04:54:02;98497.78;;;22.77;62.42
37200;BME280;23096;50.892;16.746;2022-08-19T04:56:29;98500.78;;;22.69;62.43
37200;BME280;23096;50.892;16.746;2022-08-19T04:58:56;98499.34;;;22.61;62.53
37200;BME280;23096;50.892;16.746;2022-08-19T05:01:26;98493.78;;;22.50;62.62
37200;BME280;23096;50.892;16.746;2022-08-19T05:03:59;98494.23;;;22.45;62.87
37200;BME280;23096;50.892;16.746;2022-08-19T05:06:26;98495.00;;;22.42;62.98
37200;BME280;23096;50.892;16.746;2022-08-19T05:08:54;98500.19;;;22.37;63.14
37200;BME280;23096;50.892;16.746;2022-08-19T05:11:24;98495.72;;;22.34;63.31
37200;BME280;23096;50.892;16.746;2022-08-19T05:13:54;98501.09;;;22.32;63.49
37200;BME280;23096;50.892;16.746;2022-08-19T05:16:22;98500.61;;;22.33;63.66
37200;BME280;23096;50.892;16.746;2022-08-19T05:18:50;98502.81;;;22.37;63.80
37200;BME280;23096;50.892;16.746;2022-08-19T05:21:35;98504.05;;;22.43;63.96
37200;BME280;23096;50.892;16.746;2022-08-19T05:24:21;98495.89;;;22.46;63.98
37200;BME280;23096;50.892;16.746;2022-08-19T05:26:49;98493.18;;;22.52;64.07
37200;BME280;23096;50.892;16.746;2022-08-19T05:29:19;98493.72;;;22.55;64.13
37200;BME280;23096;50.892;16.746;2022-08-19T05:31:47;98496.58;;;22.62;64.14
37200;BME280;23096;50.892;16.746;2022-08-19T05:34:18;98498.30;;;22.67;64.14
37200;BME280;23096;50.892;16.746;2022-08-19T05:36:48;98497.92;;;22.76;64.13
37200;BME280;23096;50.892;16.746;2022-08-19T05:39:19;98499.00;;;22.83;64.13
37200;BME280;23096;50.892;16.746;2022-08-19T05:41:49;98502.88;;;22.93;64.17
37200;BME280;23096;50.892;16.746;2022-08-19T05:44:18;98505.94;;;23.02;64.09
37200;BME280;23096;50.892;16.746;2022-08-19T05:46:47;98489.61;;;23.04;63.96
37200;BME280;23096;50.892;16.746;2022-08-19T05:49:14;98470.02;;;23.03;63.91
37200;BME280;23096;50.892;16.746;2022-08-19T05:51:42;98477.36;;;22.99;63.87
37200;BME280;23096;50.892;16.746;2022-08-19T05:54:09;98488.97;;;22.96;63.99
37200;BME280;23096;50.892;16.746;2022-08-19T05:56:37;98497.70;;;22.97;64.08
37200;BME280;23096;50.892;16.746;2022-08-19T05:59:05;98505.27;;;23.00;64.19
37200;BME280;23096;50.892;16.746;2022-08-19T06:01:35;98520.31;;;23.08;64.31
37200;BME280;23096;50.892;16.746;2022-08-19T06:04:03;98516.34;;;23.18;64.36
37200;BME280;23096;50.892;16.746;2022-08-19T06:06:30;98529.91;;;23.27;64.35
37200;BME280;23096;50.892;16.746;2022-08-19T06:08:56;98537.58;;;23.38;64.33
37200;BME280;23096;50.892;16.746;2022-08-19T06:11:28;98540.49;;;23.49;64.31
37200;BME280;23096;50.892;16.746;2022-08-19T06:14:07;98545.35;;;23.58;64.29
37200;BME280;23096;50.892;16.746;2022-08-19T06:16:30;98551.67;;;23.65;64.23
37200;BME280;23096;50.892;16.746;2022-08-19T06:19:02;98552.37;;;23.71;64.16
37200;BME280;23096;50.892;16.746;2022-08-19T06:21:30;98557.52;;;23.77;64.16
37200;BME280;23096;50.892;16.746;2022-08-19T06:23:57;98565.68;;;23.83;64.13
37200;BME280;23096;50.892;16.746;2022-08-19T06:26:24;98572.64;;;23.88;64.05
37200;BME280;23096;50.892;16.746;2022-08-19T06:28:52;98583.86;;;23.95;64.02
37200;BME280;23096;50.892;16.746;2022-08-19T06:31:21;98590.81;;;24.00;64.00
37200;BME280;23096;50.892;16.746;2022-08-19T06:33:49;98600.77;;;24.06;63.99
37200;BME280;23096;50.892;16.746;2022-08-19T06:36:22;98604.09;;;24.12;63.97
37200;BME280;23096;50.892;16.746;2022-08-19T06:38:55;98613.16;;;24.14;63.90
37200;BME280;23096;50.892;16.746;2022-08-19T06:41:26;98619.91;;;24.16;63.91
37200;BME280;23096;50.892;16.746;2022-08-19T06:43:54;98625.05;;;24.22;63.87
37200;BME280;23096;50.892;16.746;2022-08-19T06:46:21;98637.95;;;24.29;63.85
37200;BME280;23096;50.892;16.746;2022-08-19T06:48:48;98639.14;;;24.35;63.85
37200;BME280;23096;50.892;16.746;2022-08-19T06:53:43;98638.52;;;24.55;63.84
37200;BME280;23096;50.892;16.746;2022-08-19T06:56:11;98646.47;;;24.59;63.84
37200;BME280;23096;50.892;16.746;2022-08-19T06:58:38;98650.61;;;24.65;63.80
37200;BME280;23096;50.892;16.746;2022-08-19T07:01:05;98648.55;;;24.73;63.78
37200;BME280;23096;50.892;16.746;2022-08-19T07:03:33;98648.92;;;24.78;63.66
37200;BME280;23096;50.892;16.746;2022-08-19T07:06:10;98645.80;;;24.83;63.64
37200;BME280;23096;50.892;16.746;2022-08-19T07:08:38;98653.92;;;24.90;63.53
37200;BME280;23096;50.892;16.746;2022-08-19T07:11:09;98660.37;;;24.95;63.46
37200;BME280;23096;50.892;16.746;2022-08-19T07:13:39;98659.45;;;25.04;63.42
37200;BME280;23096;50.892;16.746;2022-08-19T07:16:11;98669.20;;;25.12;63.30
37200;BME280;23096;50.892;16.746;2022-08-19T07:18:39;98670.08;;;25.21;63.20
37200;BME280;23096;50.892;16.746;2022-08-19T07:21:10;98669.16;;;25.30;63.10
37200;BME280;23096;50.892;16.746;2022-08-19T07:23:37;98665.11;;;25.40;63.03
37200;BME280;23096;50.892;16.746;2022-08-19T07:26:13;98668.42;;;25.46;62.83
37200;BME280;23096;50.892;16.746;2022-08-19T07:28:42;98669.77;;;25.54;62.72
37200;BME280;23096;50.892;16.746;2022-08-19T07:31:17;98675.24;;;25.65;62.63
37200;BME280;23096;50.892;16.746;2022-08-19T07:33:41;98680.92;;;25.78;62.49
37200;BME280;23096;50.892;16.746;2022-08-19T07:36:11;98677.63;;;25.89;62.31
37200;BME280;23096;50.892;16.746;2022-08-19T07:38:40;98672.92;;;26.00;62.15
37200;BME280;23096;50.892;16.746;2022-08-19T07:41:13;98673.61;;;26.11;61.95
37200;BME280;23096;50.892;16.746;2022-08-19T07:43:41;98670.81;;;26.20;61.70
37200;BME280;23096;50.892;16.746;2022-08-19T07:46:09;98665.88;;;26.30;61.41
37200;BME280;23096;50.892;16.746;2022-08-19T07:48:38;98665.05;;;26.37;61.17
37200;BME280;23096;50.892;16.746;2022-08-19T07:51:06;98669.33;;;26.47;60.92
37200;BME280;23096;50.892;16.746;2022-08-19T07:53:35;98666.55;;;26.56;60.71
37200;BME280;23096;50.892;16.746;2022-08-19T07:56:04;98662.28;;;26.68;60.41
37200;BME280;23096;50.892;16.746;2022-08-19T07:58:34;98664.42;;;26.76;60.15
37200;BME280;23096;50.892;16.746;2022-08-19T08:01:03;98666.72;;;26.88;59.90
37200;BME280;23096;50.892;16.746;2022-08-19T08:03:30;98670.83;;;26.99;59.63
37200;BME280;23096;50.892;16.746;2022-08-19T08:06:16;98674.13;;;27.09;59.34
37200;BME280;23096;50.892;16.746;2022-08-19T08:09:03;98677.72;;;27.20;59.13
37200;BME280;23096;50.892;16.746;2022-08-19T08:11:48;98670.95;;;27.34;58.85
37200;BME280;23096;50.892;16.746;2022-08-19T08:14:31;98671.08;;;27.45;58.50
37200;BME280;23096;50.892;16.746;2022-08-19T08:16:53;98672.69;;;27.54;58.24
37200;BME280;23096;50.892;16.746;2022-08-19T08:19:22;98672.45;;;27.68;57.98
37200;BME280;23096;50.892;16.746;2022-08-19T08:21:50;98667.61;;;27.76;57.62
37200;BME280;23096;50.892;16.746;2022-08-19T08:24:18;98672.02;;;27.87;57.24
37200;BME280;23096;50.892;16.746;2022-08-19T08:26:45;98656.65;;;27.91;56.08
37200;BME280;23096;50.892;16.746;2022-08-19T08:29:14;98656.65;;;27.91;56.08
37200;BME280;23096;50.892;16.746;2022-08-19T08:31:43;98677.73;;;28.07;55.96
37200;BME280;23096;50.892;16.746;2022-08-19T08:34:12;98683.80;;;28.16;55.62
37200;BME280;23096;50.892;16.746;2022-08-19T08:36:44;98686.55;;;28.27;55.33
37200;BME280;23096;50.892;16.746;2022-08-19T08:39:18;98691.29;;;28.36;55.01
37200;BME280;23096;50.892;16.746;2022-08-19T08:41:51;98683.91;;;28.46;54.66
37200;BME280;23096;50.892;16.746;2022-08-19T08:44:47;98682.02;;;28.59;54.21
37200;BME280;23096;50.892;16.746;2022-08-19T08:47:18;98676.50;;;28.64;54.02
37200;BME280;23096;50.892;16.746;2022-08-19T08:52:33;98660.94;;;28.84;53.52
37200;BME280;23096;50.892;16.746;2022-08-19T08:55:08;98660.20;;;28.91;53.22
37200;BME280;23096;50.892;16.746;2022-08-19T09:00:28;98664.70;;;29.05;52.74
37200;BME280;23096;50.892;16.746;2022-08-19T09:02:57;98661.64;;;29.12;52.65
37200;BME280;23096;50.892;16.746;2022-08-19T09:11:50;98656.08;;;29.37;52.15
37200;BME280;23096;50.892;16.746;2022-08-19T09:14:24;98655.94;;;29.49;51.88
37200;BME280;23096;50.892;16.746;2022-08-19T09:16:56;98657.17;;;29.57;51.59
37200;BME280;23096;50.892;16.746;2022-08-19T09:19:23;98660.73;;;29.65;51.41
37200;BME280;23096;50.892;16.746;2022-08-19T09:21:50;98666.30;;;29.70;51.19
37200;BME280;23096;50.892;16.746;2022-08-19T09:24:16;98662.80;;;29.69;51.02
37200;BME280;23096;50.892;16.746;2022-08-19T09:26:43;98662.59;;;29.75;50.94
37200;BME280;23096;50.892;16.746;2022-08-19T09:29:09;98671.85;;;29.79;50.77
37200;BME280;23096;50.892;16.746;2022-08-19T09:31:36;98666.30;;;29.85;50.65
37200;BME280;23096;50.892;16.746;2022-08-19T09:34:03;98673.32;;;29.92;50.54
37200;BME280;23096;50.892;16.746;2022-08-19T09:36:32;98662.08;;;30.01;50.57
37200;BME280;23096;50.892;16.746;2022-08-19T09:39:01;98665.93;;;30.09;50.48
37200;BME280;23096;50.892;16.746;2022-08-19T09:41:28;98665.67;;;30.15;50.39
37200;BME280;23096;50.892;16.746;2022-08-19T09:43:56;98667.23;;;30.24;50.20
37200;BME280;23096;50.892;16.746;2022-08-19T09:46:26;98666.13;;;30.29;50.04
37200;BME280;23096;50.892;16.746;2022-08-19T09:48:53;98673.69;;;30.36;50.02
37200;BME280;23096;50.892;16.746;2022-08-19T09:51:23;98665.08;;;30.45;49.95
37200;BME280;23096;50.892;16.746;2022-08-19T09:53:50;98666.77;;;30.53;49.86
37200;BME280;23096;50.892;16.746;2022-08-19T09:56:20;98675.63;;;30.60;49.75
37200;BME280;23096;50.892;16.746;2022-08-19T09:58:48;98672.92;;;30.64;49.62
37200;BME280;23096;50.892;16.746;2022-08-19T10:01:20;98672.41;;;30.65;49.31
37200;BME280;23096;50.892;16.746;2022-08-19T10:03:51;98671.64;;;30.60;48.88
37200;BME280;23096;50.892;16.746;2022-08-19T10:06:22;98675.00;;;30.58;48.75
37200;BME280;23096;50.892;16.746;2022-08-19T10:08:49;98668.95;;;30.53;48.61
37200;BME280;23096;50.892;16.746;2022-08-19T10:11:18;98679.95;;;30.50;48.43
37200;BME280;23096;50.892;16.746;2022-08-19T10:13:46;98675.16;;;30.39;48.17
37200;BME280;23096;50.892;16.746;2022-08-19T10:16:16;98676.23;;;30.34;48.05
37200;BME280;23096;50.892;16.746;2022-08-19T10:18:45;98680.33;;;30.36;48.06
37200;BME280;23096;50.892;16.746;2022-08-19T10:21:18;98673.13;;;30.41;47.94
37200;BME280;23096;50.892;16.746;2022-08-19T10:23:48;98671.61;;;30.43;47.63
37200;BME280;23096;50.892;16.746;2022-08-19T10:26:24;98673.50;;;30.38;47.36
37200;BME280;23096;50.892;16.746;2022-08-19T10:28:53;98677.67;;;30.36;47.12
37200;BME280;23096;50.892;16.746;2022-08-19T10:31:26;98679.73;;;30.30;46.92
37200;BME280;23096;50.892;16.746;2022-08-19T10:33:52;98675.56;;;30.32;46.84
37200;BME280;23096;50.892;16.746;2022-08-19T10:36:21;98672.98;;;30.38;46.71
37200;BME280;23096;50.892;16.746;2022-08-19T10:38:51;98675.41;;;30.44;46.56
37200;BME280;23096;50.892;16.746;2022-08-19T10:41:20;98679.58;;;30.43;46.33
37200;BME280;23096;50.892;16.746;2022-08-19T10:46:42;98677.97;;;30.27;45.89
37200;BME280;23096;50.892;16.746;2022-08-19T10:49:11;98677.70;;;30.22;45.79
37200;BME280;23096;50.892;16.746;2022-08-19T10:51:38;98674.94;;;30.19;45.68
37200;BME280;23096;50.892;16.746;2022-08-19T10:54:23;98690.91;;;30.15;45.61
37200;BME280;23096;50.892;16.746;2022-08-19T10:56:52;98693.33;;;30.10;45.58
37200;BME280;23096;50.892;16.746;2022-08-19T10:59:26;98695.39;;;30.04;45.53
37200;BME280;23096;50.892;16.746;2022-08-19T11:01:59;98693.77;;;30.03;45.43
37200;BME280;23096;50.892;16.746;2022-08-19T11:04:26;98700.07;;;30.01;45.46
37200;BME280;23096;50.892;16.746;2022-08-19T11:06:52;98695.72;;;30.05;45.47
37200;BME280;23096;50.892;16.746;2022-08-19T11:09:21;98695.41;;;30.14;45.47
37200;BME280;23096;50.892;16.746;2022-08-19T11:11:53;98695.16;;;30.31;45.51
37200;BME280;23096;50.892;16.746;2022-08-19T11:14:20;98698.73;;;30.49;45.55
37200;BME280;23096;50.892;16.746;2022-08-19T11:16:48;98699.09;;;30.67;45.60
37200;BME280;23096;50.892;16.746;2022-08-19T11:19:15;98695.05;;;30.82;45.62
37200;BME280;23096;50.892;16.746;2022-08-19T11:21:46;98701.47;;;30.84;45.41
37200;BME280;23096;50.892;16.746;2022-08-19T11:24:16;98695.61;;;30.77;45.30
37200;BME280;23096;50.892;16.746;2022-08-19T11:26:45;98699.94;;;30.68;45.16
37200;BME280;23096;50.892;16.746;2022-08-19T11:29:16;98697.66;;;30.54;45.00
37200;BME280;23096;50.892;16.746;2022-08-19T11:31:46;98692.28;;;30.47;44.93
37200;BME280;23096;50.892;16.746;2022-08-19T11:34:17;98692.42;;;30.39;44.76
37200;BME280;23096;50.892;16.746;2022-08-19T11:36:46;98693.50;;;30.34;44.64
37200;BME280;23096;50.892;16.746;2022-08-19T11:39:15;98698.00;;;30.33;44.64
37200;BME280;23096;50.892;16.746;2022-08-19T11:41:43;98700.06;;;30.38;44.67
37200;BME280;23096;50.892;16.746;2022-08-19T11:44:09;98696.89;;;30.38;44.63
37200;BME280;23096;50.892;16.746;2022-08-19T11:46:37;98695.56;;;30.38;44.62
37200;BME280;23096;50.892;16.746;2022-08-19T11:49:05;98696.34;;;30.43;44.65
37200;BME280;23096;50.892;16.746;2022-08-19T11:51:33;98693.61;;;30.47;44.58
37200;BME280;23096;50.892;16.746;2022-08-19T11:54:00;98691.09;;;30.50;44.48
37200;BME280;23096;50.892;16.746;2022-08-19T11:56:27;98696.45;;;30.56;44.52
37200;BME280;23096;50.892;16.746;2022-08-19T11:58:54;98691.75;;;30.69;44.54
37200;BME280;23096;50.892;16.746;2022-08-19T12:01:24;98689.59;;;30.80;44.52
37200;BME280;23096;50.892;16.746;2022-08-19T12:03:53;98695.36;;;30.94;44.51
37200;BME280;23096;50.892;16.746;2022-08-19T12:06:25;98684.69;;;31.05;44.40
37200;BME280;23096;50.892;16.746;2022-08-19T12:08:56;98681.61;;;31.19;44.31
37200;BME280;23096;50.892;16.746;2022-08-19T12:11:27;98687.38;;;31.29;44.16
37200;BME280;23096;50.892;16.746;2022-08-19T12:13:53;98685.67;;;31.32;43.92
37200;BME280;23096;50.892;16.746;2022-08-19T12:16:23;98683.63;;;31.34;43.75
37200;BME280;23096;50.892;16.746;2022-08-19T12:18:52;98687.53;;;31.38;43.64
37200;BME280;23096;50.892;16.746;2022-08-19T12:21:26;98682.39;;;31.47;43.70
37200;BME280;23096;50.892;16.746;2022-08-19T12:23:56;98683.90;;;31.63;43.74
37200;BME280;23096;50.892;16.746;2022-08-19T12:26:25;98682.93;;;31.71;43.53
37200;BME280;23096;50.892;16.746;2022-08-19T12:28:53;98688.45;;;31.76;43.34
37200;BME280;23096;50.892;16.746;2022-08-19T12:31:19;98676.73;;;31.88;43.36
37200;BME280;23096;50.892;16.746;2022-08-19T12:33:46;98674.29;;;31.93;43.20
37200;BME280;23096;50.892;16.746;2022-08-19T12:36:14;98680.43;;;31.94;42.93
37200;BME280;23096;50.892;16.746;2022-08-19T12:38:41;98676.92;;;31.86;42.68
37200;BME280;23096;50.892;16.746;2022-08-19T12:41:12;98679.45;;;31.77;42.56
37200;BME280;23096;50.892;16.746;2022-08-19T12:43:39;98682.80;;;31.68;42.54
37200;BME280;23096;50.892;16.746;2022-08-19T12:46:07;98679.61;;;31.62;42.50
37200;BME280;23096;50.892;16.746;2022-08-19T12:48:34;98679.05;;;31.56;42.49
37200;BME280;23096;50.892;16.746;2022-08-19T12:51:05;98683.47;;;31.53;42.55
37200;BME280;23096;50.892;16.746;2022-08-19T12:53:32;98687.03;;;31.49;42.62
37200;BME280;23096;50.892;16.746;2022-08-19T12:55:58;98680.86;;;31.49;42.67
37200;BME280;23096;50.892;16.746;2022-08-19T12:58:26;98681.70;;;31.49;42.68
37200;BME280;23096;50.892;16.746;2022-08-19T13:00:54;98683.95;;;31.52;42.68
37200;BME280;23096;50.892;16.746;2022-08-19T13:03:20;98678.62;;;31.52;42.77
37200;BME280;23096;50.892;16.746;2022-08-19T13:05:50;98686.94;;;31.53;42.82
37200;BME280;23096;50.892;16.746;2022-08-19T13:08:16;98680.67;;;31.50;42.72
37200;BME280;23096;50.892;16.746;2022-08-19T13:10:42;98673.75;;;31.45;42.64
37200;BME280;23096;50.892;16.746;2022-08-19T13:13:09;98675.65;;;31.34;42.56
37200;BME280;23096;50.892;16.746;2022-08-19T13:15:38;98674.79;;;31.27;42.59
37200;BME280;23096;50.892;16.746;2022-08-19T13:18:07;98675.20;;;31.24;42.59
37200;BME280;23096;50.892;16.746;2022-08-19T13:20:35;98672.73;;;31.22;42.61